sensor_id;sensor_type;location;lat;lon;timestamp;P1;durP1;ratioP1;P2;durP2;ratioP2
14903;SDS011;7543;53.148;8.234;2023-07-30T00:02:07;4.63;;;2.70;;
14903;SDS011;7543;53.148;8.234;2023-07-30T00:04:35;5.23;;;2.90;;
14903;SDS011;7543;53.148;8.234;2023-07-30T00:07:04;8.20;;;3.27;;
14903;SDS011;7543;53.148;8.234;2023-07-30T00:09:34;7.13;;;3.10;;
14903;SDS011;7543;53.148;8.234;2023-07-30T00:12:02;4.63;;;3.13;;
14903;SDS011;7543;53.148;8.234;2023-07-30T00:14:31;4.50;;;2.80;;
14903;SDS011;7543;53.148;8.234;2023-07-30T00:17:00;3.40;;;2.77;;
14903;SDS011;7543;53.148;8.234;2023-07-30T00:19:28;4.40;;;3.33;;
14903;SDS011;7543;53.148;8.234;2023-07-30T00:21:56;5.33;;;3.20;;
14903;SDS011;7543;53.148;8.234;2023-07-30T00:24:25;3.93;;;3.00;;
14903;SDS011;7543;53.148;8.234;2023-07-30T00:26:55;3.97;;;2.70;;
14903;SDS011;7543;53.148;8.234;2023-07-30T00:29:23;4.83;;;2.70;;
14903;SDS011;7543;53.148;8.234;2023-07-30T00:31:51;3.80;;;2.60;;
14903;SDS011;7543;53.148;8.234;2023-07-30T00:34:21;4.30;;;3.00;;
14903;SDS011;7543;53.148;8.234;2023-07-30T00:36:49;3.93;;;3.20;;
14903;SDS011;7543;53.148;8.234;2023-07-30T00:39:18;5.37;;;3.00;;
14903;SDS011;7543;53.148;8.234;2023-07-30T00:41:46;4.47;;;2.70;;
14903;SDS011;7543;53.148;8.234;2023-07-30T00:44:16;4.63;;;2.60;;
14903;SDS011;7543;53.148;8.234;2023-07-30T00:46:44;3.77;;;2.80;;
14903;SDS011;7543;53.148;8.234;2023-07-30T00:49:13;3.43;;;2.60;;
14903;SDS011;7543;53.148;8.234;2023-07-30T00:51:41;4.23;;;2.80;;
14903;SDS011;7543;53.148;8.234;2023-07-30T00:54:10;4.93;;;2.43;;
14903;SDS011;7543;53.148;8.234;2023-07-30T00:56:39;4.63;;;2.80;;
14903;SDS011;7543;53.148;8.234;2023-07-30T00:59:10;4.73;;;2.63;;
14903;SDS011;7543;53.148;8.234;2023-07-30T01:01:40;4.03;;;2.63;;
14903;SDS011;7543;53.148;8.234;2023-07-30T01:04:09;6.37;;;2.70;;
14903;SDS011;7543;53.148;8.234;2023-07-30T01:06:38;5.57;;;2.67;;
14903;SDS011;7543;53.148;8.234;2023-07-30T01:09:06;4.80;;;2.77;;
14903;SDS011;7543;53.148;8.234;2023-07-30T01:11:34;3.37;;;2.50;;
14903;SDS011;7543;53.148;8.234;2023-07-30T01:14:04;4.03;;;2.80;;
14903;SDS011;7543;53.148;8.234;2023-07-30T01:16:33;3.47;;;2.63;;
14903;SDS011;7543;53.148;8.234;2023-07-30T01:19:03;4.10;;;2.63;;
14903;SDS011;7543;53.148;8.234;2023-07-30T01:21:33;2.77;;;2.20;;
14903;SDS011;7543;53.148;8.234;2023-07-30T01:24:01;6.27;;;3.17;;
14903;SDS011;7543;53.148;8.234;2023-07-30T01:26:31;3.47;;;2.47;;
14903;SDS011;7543;53.148;8.234;2023-07-30T01:29:01;12.20;;;2.50;;
14903;SDS011;7543;53.148;8.234;2023-07-30T01:31:31;3.43;;;2.50;;
14903;SDS011;7543;53.148;8.234;2023-07-30T01:34:00;4.23;;;2.47;;
14903;SDS011;7543;53.148;8.234;2023-07-30T01:36:30;5.33;;;2.90;;
14903;SDS011;7543;53.148;8.234;2023-07-30T01:39:01;3.63;;;2.57;;
14903;SDS011;7543;53.148;8.234;2023-07-30T01:41:29;4.30;;;2.47;;
14903;SDS011;7543;53.148;8.234;2023-07-30T01:43:58;8.23;;;2.90;;
14903;SDS011;7543;53.148;8.234;2023-07-30T01:46:26;4.43;;;2.60;;
14903;SDS011;7543;53.148;8.234;2023-07-30T01:48:54;6.77;;;3.00;;
14903;SDS011;7543;53.148;8.234;2023-07-30T01:51:23;3.40;;;2.63;;
14903;SDS011;7543;53.148;8.234;2023-07-30T01:53:52;4.50;;;2.83;;
14903;SDS011;7543;53.148;8.234;2023-07-30T01:56:21;5.40;;;3.00;;
14903;SDS011;7543;53.148;8.234;2023-07-30T01:58:50;5.00;;;2.60;;
14903;SDS011;7543;53.148;8.234;2023-07-30T02:01:18;7.33;;;3.10;;
14903;SDS011;7543;53.148;8.234;2023-07-30T02:03:46;4.97;;;2.50;;
14903;SDS011;7543;53.148;8.234;2023-07-30T02:06:15;6.80;;;2.70;;
14903;SDS011;7543;53.148;8.234;2023-07-30T02:08:43;3.87;;;2.50;;
14903;SDS011;7543;53.148;8.234;2023-07-30T02:11:13;5.53;;;2.97;;
14903;SDS011;7543;53.148;8.234;2023-07-30T02:13:41;4.70;;;2.90;;
14903;SDS011;7543;53.148;8.234;2023-07-30T02:16:10;7.73;;;3.00;;
14903;SDS011;7543;53.148;8.234;2023-07-30T02:18:38;5.57;;;2.70;;
14903;SDS011;7543;53.148;8.234;2023-07-30T02:21:07;6.13;;;2.80;;
14903;SDS011;7543;53.148;8.234;2023-07-30T02:23:35;4.83;;;2.87;;
14903;SDS011;7543;53.148;8.234;2023-07-30T02:26:03;4.43;;;2.83;;
14903;SDS011;7543;53.148;8.234;2023-07-30T02:28:33;5.47;;;3.07;;
14903;SDS011;7543;53.148;8.234;2023-07-30T02:31:01;7.43;;;3.77;;
14903;SDS011;7543;53.148;8.234;2023-07-30T02:33:30;7.73;;;3.53;;
14903;SDS011;7543;53.148;8.234;2023-07-30T02:35:58;6.43;;;3.23;;
14903;SDS011;7543;53.148;8.234;2023-07-30T02:38:26;5.67;;;3.37;;
14903;SDS011;7543;53.148;8.234;2023-07-30T02:40:55;9.13;;;4.00;;
14903;SDS011;7543;53.148;8.234;2023-07-30T02:43:23;3.83;;;3.00;;
14903;SDS011;7543;53.148;8.234;2023-07-30T02:45:53;4.33;;;3.20;;
14903;SDS011;7543;53.148;8.234;2023-07-30T02:48:21;5.10;;;3.33;;
14903;SDS011;7543;53.148;8.234;2023-07-30T02:50:49;7.27;;;3.53;;
14903;SDS011;7543;53.148;8.234;2023-07-30T02:53:18;7.27;;;3.43;;
14903;SDS011;7543;53.148;8.234;2023-07-30T02:55:46;5.53;;;3.10;;
14903;SDS011;7543;53.148;8.234;2023-07-30T02:58:15;6.37;;;3.50;;
14903;SDS011;7543;53.148;8.234;2023-07-30T03:00:43;4.83;;;3.20;;
14903;SDS011;7543;53.148;8.234;2023-07-30T03:03:13;7.50;;;3.57;;
14903;SDS011;7543;53.148;8.234;2023-07-30T03:05:41;11.40;;;3.53;;
14903;SDS011;7543;53.148;8.234;2023-07-30T03:08:09;8.53;;;3.70;;
14903;SDS011;7543;53.148;8.234;2023-07-30T03:10:38;6.23;;;3.40;;
14903;SDS011;7543;53.148;8.234;2023-07-30T03:13:06;6.10;;;3.37;;
14903;SDS011;7543;53.148;8.234;2023-07-30T03:15:34;7.30;;;3.30;;
14903;SDS011;7543;53.148;8.234;2023-07-30T03:18:03;4.67;;;2.90;;
14903;SDS011;7543;53.148;8.234;2023-07-30T03:20:33;6.87;;;3.30;;
14903;SDS011;7543;53.148;8.234;2023-07-30T03:23:02;10.03;;;3.30;;
14903;SDS011;7543;53.148;8.234;2023-07-30T03:25:30;5.67;;;3.03;;
14903;SDS011;7543;53.148;8.234;2023-07-30T03:27:58;8.40;;;3.10;;
14903;SDS011;7543;53.148;8.234;2023-07-30T03:30:27;6.40;;;3.10;;
14903;SDS011;7543;53.148;8.234;2023-07-30T03:32:55;6.23;;;3.03;;
14903;SDS011;7543;53.148;8.234;2023-07-30T03:35:23;9.33;;;2.83;;
14903;SDS011;7543;53.148;8.234;2023-07-30T03:37:53;5.63;;;3.03;;
14903;SDS011;7543;53.148;8.234;2023-07-30T03:40:21;6.93;;;3.00;;
14903;SDS011;7543;53.148;8.234;2023-07-30T03:42:49;6.40;;;3.10;;
14903;SDS011;7543;53.148;8.234;2023-07-30T03:45:18;6.60;;;2.90;;
14903;SDS011;7543;53.148;8.234;2023-07-30T03:47:46;4.83;;;2.50;;
14903;SDS011;7543;53.148;8.234;2023-07-30T03:50:15;6.27;;;2.93;;
14903;SDS011;7543;53.148;8.234;2023-07-30T03:52:43;6.53;;;3.00;;
14903;SDS011;7543;53.148;8.234;2023-07-30T03:55:13;5.27;;;2.50;;
14903;SDS011;7543;53.148;8.234;2023-07-30T03:57:41;9.47;;;3.07;;
14903;SDS011;7543;53.148;8.234;2023-07-30T04:00:10;6.37;;;2.60;;
14903;SDS011;7543;53.148;8.234;2023-07-30T04:02:41;7.67;;;2.50;;
14903;SDS011;7543;53.148;8.234;2023-07-30T04:05:09;6.43;;;2.40;;
14903;SDS011;7543;53.148;8.234;2023-07-30T04:07:38;6.73;;;2.70;;
14903;SDS011;7543;53.148;8.234;2023-07-30T04:10:06;7.20;;;2.87;;
14903;SDS011;7543;53.148;8.234;2023-07-30T04:12:36;4.37;;;2.40;;
14903;SDS011;7543;53.148;8.234;2023-07-30T04:15:05;8.20;;;2.83;;
14903;SDS011;7543;53.148;8.234;2023-07-30T04:17:34;8.37;;;2.43;;
14903;SDS011;7543;53.148;8.234;2023-07-30T04:20:05;8.93;;;2.70;;
14903;SDS011;7543;53.148;8.234;2023-07-30T04:22:36;6.03;;;2.43;;
14903;SDS011;7543;53.148;8.234;2023-07-30T04:25:04;5.60;;;2.40;;
14903;SDS011;7543;53.148;8.234;2023-07-30T04:27:34;5.70;;;2.13;;
14903;SDS011;7543;53.148;8.234;2023-07-30T04:30:04;4.53;;;2.10;;
14903;SDS011;7543;53.148;8.234;2023-07-30T04:32:33;7.00;;;2.67;;
14903;SDS011;7543;53.148;8.234;2023-07-30T04:35:02;6.07;;;2.27;;
14903;SDS011;7543;53.148;8.234;2023-07-30T04:37:30;8.00;;;2.30;;
14903;SDS011;7543;53.148;8.234;2023-07-30T04:39:59;11.20;;;2.53;;
14903;SDS011;7543;53.148;8.234;2023-07-30T04:42:30;10.10;;;2.50;;
14903;SDS011;7543;53.148;8.234;2023-07-30T04:44:59;6.97;;;2.57;;
14903;SDS011;7543;53.148;8.234;2023-07-30T04:47:29;5.10;;;2.23;;
14903;SDS011;7543;53.148;8.234;2023-07-30T04:49:57;7.07;;;1.93;;
14903;SDS011;7543;53.148;8.234;2023-07-30T04:52:25;8.33;;;1.93;;
14903;SDS011;7543;53.148;8.234;2023-07-30T04:54:54;6.77;;;2.40;;
14903;SDS011;7543;53.148;8.234;2023-07-30T04:57:22;5.20;;;2.40;;
14903;SDS011;7543;53.148;8.234;2023-07-30T04:59:50;7.20;;;2.60;;
14903;SDS011;7543;53.148;8.234;2023-07-30T05:02:19;12.40;;;2.13;;
14903;SDS011;7543;53.148;8.234;2023-07-30T05:04:49;7.10;;;2.47;;
14903;SDS011;7543;53.148;8.234;2023-07-30T05:07:17;9.00;;;2.30;;
14903;SDS011;7543;53.148;8.234;2023-07-30T05:09:45;5.37;;;2.30;;
14903;SDS011;7543;53.148;8.234;2023-07-30T05:12:14;6.53;;;2.33;;
14903;SDS011;7543;53.148;8.234;2023-07-30T05:14:42;6.43;;;2.03;;
14903;SDS011;7543;53.148;8.234;2023-07-30T05:17:11;7.80;;;2.20;;
14903;SDS011;7543;53.148;8.234;2023-07-30T05:19:39;7.30;;;2.10;;
14903;SDS011;7543;53.148;8.234;2023-07-30T05:22:09;5.67;;;2.23;;
14903;SDS011;7543;53.148;8.234;2023-07-30T05:24:37;7.30;;;2.70;;
14903;SDS011;7543;53.148;8.234;2023-07-30T05:27:05;9.73;;;2.50;;
14903;SDS011;7543;53.148;8.234;2023-07-30T05:29:34;7.00;;;2.30;;
14903;SDS011;7543;53.148;8.234;2023-07-30T05:32:02;8.13;;;3.00;;
14903;SDS011;7543;53.148;8.234;2023-07-30T05:34:31;4.43;;;2.10;;
14903;SDS011;7543;53.148;8.234;2023-07-30T05:36:59;6.00;;;2.63;;
14903;SDS011;7543;53.148;8.234;2023-07-30T05:39:29;8.97;;;2.77;;
14903;SDS011;7543;53.148;8.234;2023-07-30T05:41:57;7.00;;;2.70;;
14903;SDS011;7543;53.148;8.234;2023-07-30T05:44:26;6.43;;;2.57;;
14903;SDS011;7543;53.148;8.234;2023-07-30T05:46:54;7.03;;;2.83;;
14903;SDS011;7543;53.148;8.234;2023-07-30T05:49:22;5.60;;;2.30;;
14903;SDS011;7543;53.148;8.234;2023-07-30T05:51:51;9.17;;;2.50;;
14903;SDS011;7543;53.148;8.234;2023-07-30T05:54:19;7.77;;;2.57;;
14903;SDS011;7543;53.148;8.234;2023-07-30T05:56:49;5.27;;;2.30;;
14903;SDS011;7543;53.148;8.234;2023-07-30T05:59:17;4.67;;;2.60;;
14903;SDS011;7543;53.148;8.234;2023-07-30T06:01:45;5.37;;;2.30;;
14903;SDS011;7543;53.148;8.234;2023-07-30T06:04:14;4.17;;;2.50;;
14903;SDS011;7543;53.148;8.234;2023-07-30T06:06:42;7.10;;;2.67;;
14903;SDS011;7543;53.148;8.234;2023-07-30T06:09:10;7.53;;;2.80;;
14903;SDS011;7543;53.148;8.234;2023-07-30T06:11:39;5.60;;;2.50;;
14903;SDS011;7543;53.148;8.234;2023-07-30T06:14:08;6.00;;;3.00;;
14903;SDS011;7543;53.148;8.234;2023-07-30T06:16:37;8.07;;;2.97;;
14903;SDS011;7543;53.148;8.234;2023-07-30T06:19:05;7.90;;;2.87;;
14903;SDS011;7543;53.148;8.234;2023-07-30T06:21:34;7.67;;;2.80;;
14903;SDS011;7543;53.148;8.234;2023-07-30T06:24:02;12.93;;;3.40;;
14903;SDS011;7543;53.148;8.234;2023-07-30T06:26:31;5.80;;;2.50;;
14903;SDS011;7543;53.148;8.234;2023-07-30T06:28:59;11.87;;;3.23;;
14903;SDS011;7543;53.148;8.234;2023-07-30T06:31:29;12.10;;;3.00;;
14903;SDS011;7543;53.148;8.234;2023-07-30T06:33:57;6.70;;;2.70;;
14903;SDS011;7543;53.148;8.234;2023-07-30T06:36:25;8.23;;;2.93;;
14903;SDS011;7543;53.148;8.234;2023-07-30T06:38:54;8.17;;;3.03;;
14903;SDS011;7543;53.148;8.234;2023-07-30T06:41:22;7.73;;;2.90;;
14903;SDS011;7543;53.148;8.234;2023-07-30T06:43:50;5.63;;;2.60;;
14903;SDS011;7543;53.148;8.234;2023-07-30T06:46:19;7.27;;;3.30;;
14903;SDS011;7543;53.148;8.234;2023-07-30T06:48:48;9.53;;;2.70;;
14903;SDS011;7543;53.148;8.234;2023-07-30T06:51:18;6.93;;;3.30;;
14903;SDS011;7543;53.148;8.234;2023-07-30T06:53:47;8.43;;;3.27;;
14903;SDS011;7543;53.148;8.234;2023-07-30T06:56:15;12.17;;;3.10;;
14903;SDS011;7543;53.148;8.234;2023-07-30T06:58:44;6.73;;;2.97;;
14903;SDS011;7543;53.148;8.234;2023-07-30T07:01:12;12.67;;;2.90;;
14903;SDS011;7543;53.148;8.234;2023-07-30T07:03:40;5.87;;;2.63;;
14903;SDS011;7543;53.148;8.234;2023-07-30T07:06:10;9.50;;;2.93;;
14903;SDS011;7543;53.148;8.234;2023-07-30T07:08:38;6.50;;;2.73;;
14903;SDS011;7543;53.148;8.234;2023-07-30T07:11:06;7.67;;;2.90;;
14903;SDS011;7543;53.148;8.234;2023-07-30T07:13:35;5.93;;;2.57;;
14903;SDS011;7543;53.148;8.234;2023-07-30T07:16:03;8.33;;;3.07;;
14903;SDS011;7543;53.148;8.234;2023-07-30T07:18:32;6.90;;;2.83;;
14903;SDS011;7543;53.148;8.234;2023-07-30T07:21:00;9.87;;;3.10;;
14903;SDS011;7543;53.148;8.234;2023-07-30T07:23:30;8.23;;;3.70;;
14903;SDS011;7543;53.148;8.234;2023-07-30T07:25:59;11.47;;;3.00;;
14903;SDS011;7543;53.148;8.234;2023-07-30T07:28:27;9.17;;;3.10;;
14903;SDS011;7543;53.148;8.234;2023-07-30T07:30:55;8.63;;;2.90;;
14903;SDS011;7543;53.148;8.234;2023-07-30T07:33:24;6.70;;;2.90;;
14903;SDS011;7543;53.148;8.234;2023-07-30T07:36:01;10.17;;;2.83;;
14903;SDS011;7543;53.148;8.234;2023-07-30T07:38:32;9.33;;;2.57;;
14903;SDS011;7543;53.148;8.234;2023-07-30T07:41:01;10.67;;;3.10;;
14903;SDS011;7543;53.148;8.234;2023-07-30T07:43:29;7.63;;;2.93;;
14903;SDS011;7543;53.148;8.234;2023-07-30T07:45:58;11.43;;;3.50;;
14903;SDS011;7543;53.148;8.234;2023-07-30T07:48:26;13.37;;;2.80;;
14903;SDS011;7543;53.148;8.234;2023-07-30T07:50:54;7.70;;;3.40;;
14903;SDS011;7543;53.148;8.234;2023-07-30T07:53:22;7.37;;;2.80;;
14903;SDS011;7543;53.148;8.234;2023-07-30T07:55:52;9.03;;;3.17;;
14903;SDS011;7543;53.148;8.234;2023-07-30T07:58:20;9.43;;;3.57;;
14903;SDS011;7543;53.148;8.234;2023-07-30T08:00:49;7.97;;;3.30;;
14903;SDS011;7543;53.148;8.234;2023-07-30T08:03:18;10.13;;;3.63;;
14903;SDS011;7543;53.148;8.234;2023-07-30T08:05:46;7.57;;;2.80;;
14903;SDS011;7543;53.148;8.234;2023-07-30T08:08:14;10.90;;;3.40;;
14903;SDS011;7543;53.148;8.234;2023-07-30T08:10:43;11.57;;;3.60;;
14903;SDS011;7543;53.148;8.234;2023-07-30T08:13:15;12.80;;;3.63;;
14903;SDS011;7543;53.148;8.234;2023-07-30T08:15:44;9.50;;;3.37;;
14903;SDS011;7543;53.148;8.234;2023-07-30T08:18:13;11.30;;;3.37;;
14903;SDS011;7543;53.148;8.234;2023-07-30T08:20:41;8.80;;;3.40;;
14903;SDS011;7543;53.148;8.234;2023-07-30T08:23:09;8.10;;;3.10;;
14903;SDS011;7543;53.148;8.234;2023-07-30T08:25:38;8.13;;;2.90;;
14903;SDS011;7543;53.148;8.234;2023-07-30T08:28:06;7.73;;;2.90;;
14903;SDS011;7543;53.148;8.234;2023-07-30T08:30:36;7.70;;;3.00;;
14903;SDS011;7543;53.148;8.234;2023-07-30T08:33:04;9.63;;;3.27;;
14903;SDS011;7543;53.148;8.234;2023-07-30T08:35:32;10.20;;;3.17;;
14903;SDS011;7543;53.148;8.234;2023-07-30T08:38:01;17.97;;;3.87;;
14903;SDS011;7543;53.148;8.234;2023-07-30T08:40:29;11.07;;;3.43;;
14903;SDS011;7543;53.148;8.234;2023-07-30T08:42:58;10.73;;;3.20;;
14903;SDS011;7543;53.148;8.234;2023-07-30T08:45:26;11.90;;;3.50;;
14903;SDS011;7543;53.148;8.234;2023-07-30T08:47:56;8.13;;;3.27;;
14903;SDS011;7543;53.148;8.234;2023-07-30T08:50:24;9.93;;;3.20;;
14903;SDS011;7543;53.148;8.234;2023-07-30T08:52:54;10.53;;;2.93;;
14903;SDS011;7543;53.148;8.234;2023-07-30T08:55:24;7.73;;;3.13;;
14903;SDS011;7543;53.148;8.234;2023-07-30T08:57:54;8.13;;;3.50;;
14903;SDS011;7543;53.148;8.234;2023-07-30T09:00:23;7.63;;;3.00;;
14903;SDS011;7543;53.148;8.234;2023-07-30T09:02:53;8.10;;;3.20;;
14903;SDS011;7543;53.148;8.234;2023-07-30T09:05:24;8.43;;;3.27;;
14903;SDS011;7543;53.148;8.234;2023-07-30T09:07:55;10.87;;;3.30;;
14903;SDS011;7543;53.148;8.234;2023-07-30T09:10:23;8.57;;;2.97;;
14903;SDS011;7543;53.148;8.234;2023-07-30T09:12:52;11.63;;;3.10;;
14903;SDS011;7543;53.148;8.234;2023-07-30T09:15:28;10.10;;;2.90;;
14903;SDS011;7543;53.148;8.234;2023-07-30T09:17:58;9.87;;;3.27;;
14903;SDS011;7543;53.148;8.234;2023-07-30T09:20:27;11.27;;;3.07;;
14903;SDS011;7543;53.148;8.234;2023-07-30T09:22:56;10.30;;;3.10;;
14903;SDS011;7543;53.148;8.234;2023-07-30T09:25:24;6.50;;;2.57;;
14903;SDS011;7543;53.148;8.234;2023-07-30T09:27:53;5.30;;;2.33;;
14903;SDS011;7543;53.148;8.234;2023-07-30T09:30:23;7.07;;;2.30;;
14903;SDS011;7543;53.148;8.234;2023-07-30T09:32:52;13.27;;;2.67;;
14903;SDS011;7543;53.148;8.234;2023-07-30T09:35:21;4.73;;;2.30;;
14903;SDS011;7543;53.148;8.234;2023-07-30T09:37:58;6.97;;;2.00;;
14903;SDS011;7543;53.148;8.234;2023-07-30T09:40:32;8.60;;;2.20;;
14903;SDS011;7543;53.148;8.234;2023-07-30T09:43:02;8.70;;;2.53;;
14903;SDS011;7543;53.148;8.234;2023-07-30T09:45:32;7.37;;;2.60;;
14903;SDS011;7543;53.148;8.234;2023-07-30T09:48:03;8.43;;;1.83;;
14903;SDS011;7543;53.148;8.234;2023-07-30T09:50:32;7.27;;;1.87;;
14903;SDS011;7543;53.148;8.234;2023-07-30T09:53:03;5.30;;;2.17;;
14903;SDS011;7543;53.148;8.234;2023-07-30T09:55:32;6.07;;;1.73;;
14903;SDS011;7543;53.148;8.234;2023-07-30T09:58:00;6.07;;;1.73;;
14903;SDS011;7543;53.148;8.234;2023-07-30T10:00:29;4.57;;;1.97;;
14903;SDS011;7543;53.148;8.234;2023-07-30T10:02:58;7.17;;;2.00;;
14903;SDS011;7543;53.148;8.234;2023-07-30T10:05:28;5.33;;;1.63;;
14903;SDS011;7543;53.148;8.234;2023-07-30T10:07:59;9.37;;;2.07;;
14903;SDS011;7543;53.148;8.234;2023-07-30T10:10:31;5.97;;;1.90;;
14903;SDS011;7543;53.148;8.234;2023-07-30T10:13:00;3.33;;;1.90;;
14903;SDS011;7543;53.148;8.234;2023-07-30T10:15:33;3.97;;;1.87;;
14903;SDS011;7543;53.148;8.234;2023-07-30T10:18:02;6.00;;;1.97;;
14903;SDS011;7543;53.148;8.234;2023-07-30T10:20:31;10.17;;;2.00;;
14903;SDS011;7543;53.148;8.234;2023-07-30T10:23:00;6.60;;;2.10;;
14903;SDS011;7543;53.148;8.234;2023-07-30T10:25:29;3.40;;;1.73;;
14903;SDS011;7543;53.148;8.234;2023-07-30T10:28:11;4.13;;;1.60;;
14903;SDS011;7543;53.148;8.234;2023-07-30T10:30:57;6.17;;;1.80;;
14903;SDS011;7543;53.148;8.234;2023-07-30T10:36:13;4.63;;;1.90;;
14903;SDS011;7543;53.148;8.234;2023-07-30T10:38:42;6.97;;;2.00;;
14903;SDS011;7543;53.148;8.234;2023-07-30T10:41:12;4.23;;;1.87;;
14903;SDS011;7543;53.148;8.234;2023-07-30T10:43:45;5.93;;;1.60;;
14903;SDS011;7543;53.148;8.234;2023-07-30T10:46:15;7.90;;;2.07;;
14903;SDS011;7543;53.148;8.234;2023-07-30T10:48:45;4.13;;;1.97;;
14903;SDS011;7543;53.148;8.234;2023-07-30T10:51:14;6.17;;;1.80;;
14903;SDS011;7543;53.148;8.234;2023-07-30T10:53:43;4.30;;;1.80;;
14903;SDS011;7543;53.148;8.234;2023-07-30T10:56:15;4.03;;;1.77;;
14903;SDS011;7543;53.148;8.234;2023-07-30T10:58:48;7.60;;;2.13;;
14903;SDS011;7543;53.148;8.234;2023-07-30T11:01:17;4.67;;;1.90;;
14903;SDS011;7543;53.148;8.234;2023-07-30T11:03:48;9.90;;;2.00;;
14903;SDS011;7543;53.148;8.234;2023-07-30T11:06:20;3.30;;;1.37;;
14903;SDS011;7543;53.148;8.234;2023-07-30T11:08:49;4.67;;;1.87;;
14903;SDS011;7543;53.148;8.234;2023-07-30T11:11:19;4.53;;;1.53;;
14903;SDS011;7543;53.148;8.234;2023-07-30T11:13:47;4.83;;;1.80;;
14903;SDS011;7543;53.148;8.234;2023-07-30T11:16:16;3.67;;;1.40;;
14903;SDS011;7543;53.148;8.234;2023-07-30T11:18:44;2.77;;;1.40;;
14903;SDS011;7543;53.148;8.234;2023-07-30T11:21:14;2.70;;;1.00;;
14903;SDS011;7543;53.148;8.234;2023-07-30T11:23:45;3.13;;;1.00;;
14903;SDS011;7543;53.148;8.234;2023-07-30T11:26:15;3.63;;;1.30;;
14903;SDS011;7543;53.148;8.234;2023-07-30T11:28:52;3.07;;;1.20;;
14903;SDS011;7543;53.148;8.234;2023-07-30T11:31:27;2.97;;;1.20;;
14903;SDS011;7543;53.148;8.234;2023-07-30T11:33:56;3.47;;;1.13;;
14903;SDS011;7543;53.148;8.234;2023-07-30T11:36:24;2.67;;;1.10;;
14903;SDS011;7543;53.148;8.234;2023-07-30T11:38:54;1.53;;;1.10;;
14903;SDS011;7543;53.148;8.234;2023-07-30T11:41:23;3.80;;;0.93;;
14903;SDS011;7543;53.148;8.234;2023-07-30T11:43:53;1.67;;;1.13;;
14903;SDS011;7543;53.148;8.234;2023-07-30T11:46:22;3.83;;;1.07;;
14903;SDS011;7543;53.148;8.234;2023-07-30T11:48:51;3.90;;;1.20;;
14903;SDS011;7543;53.148;8.234;2023-07-30T11:51:21;2.47;;;1.30;;
14903;SDS011;7543;53.148;8.234;2023-07-30T11:53:51;2.00;;;0.97;;
14903;SDS011;7543;53.148;8.234;2023-07-30T11:56:21;2.47;;;1.07;;
14903;SDS011;7543;53.148;8.234;2023-07-30T11:58:51;1.33;;;0.80;;
14903;SDS011;7543;53.148;8.234;2023-07-30T12:01:23;1.87;;;1.03;;
14903;SDS011;7543;53.148;8.234;2023-07-30T12:03:53;6.67;;;1.03;;
14903;SDS011;7543;53.148;8.234;2023-07-30T12:06:24;3.27;;;1.13;;
14903;SDS011;7543;53.148;8.234;2023-07-30T12:08:52;1.67;;;1.00;;
14903;SDS011;7543;53.148;8.234;2023-07-30T12:11:21;3.00;;;0.83;;
14903;SDS011;7543;53.148;8.234;2023-07-30T12:13:49;3.27;;;1.10;;
14903;SDS011;7543;53.148;8.234;2023-07-30T12:16:18;3.90;;;1.20;;
14903;SDS011;7543;53.148;8.234;2023-07-30T12:18:47;2.87;;;1.23;;
14903;SDS011;7543;53.148;8.234;2023-07-30T12:21:16;2.30;;;1.10;;
14903;SDS011;7543;53.148;8.234;2023-07-30T12:23:44;1.87;;;1.00;;
14903;SDS011;7543;53.148;8.234;2023-07-30T12:26:13;3.40;;;0.90;;
14903;SDS011;7543;53.148;8.234;2023-07-30T12:28:41;2.27;;;1.00;;
14903;SDS011;7543;53.148;8.234;2023-07-30T12:31:09;3.30;;;1.00;;
14903;SDS011;7543;53.148;8.234;2023-07-30T12:33:37;3.53;;;1.30;;
14903;SDS011;7543;53.148;8.234;2023-07-30T12:36:07;4.87;;;1.47;;
14903;SDS011;7543;53.148;8.234;2023-07-30T12:38:36;5.00;;;1.30;;
14903;SDS011;7543;53.148;8.234;2023-07-30T12:41:04;2.47;;;1.03;;
14903;SDS011;7543;53.148;8.234;2023-07-30T12:43:32;3.07;;;1.37;;
14903;SDS011;7543;53.148;8.234;2023-07-30T12:46:00;4.27;;;1.30;;
14903;SDS011;7543;53.148;8.234;2023-07-30T12:48:29;3.37;;;1.20;;
14903;SDS011;7543;53.148;8.234;2023-07-30T12:50:57;3.67;;;1.60;;
14903;SDS011;7543;53.148;8.234;2023-07-30T12:53:27;5.50;;;1.37;;
14903;SDS011;7543;53.148;8.234;2023-07-30T12:55:55;4.13;;;1.20;;
14903;SDS011;7543;53.148;8.234;2023-07-30T12:58:24;2.60;;;1.20;;
14903;SDS011;7543;53.148;8.234;2023-07-30T13:00:52;5.67;;;1.30;;
14903;SDS011;7543;53.148;8.234;2023-07-30T13:03:21;6.83;;;1.63;;
14903;SDS011;7543;53.148;8.234;2023-07-30T13:05:49;5.87;;;1.50;;
14903;SDS011;7543;53.148;8.234;2023-07-30T13:08:18;5.97;;;1.43;;
14903;SDS011;7543;53.148;8.234;2023-07-30T13:10:47;2.77;;;1.27;;
14903;SDS011;7543;53.148;8.234;2023-07-30T13:13:15;3.27;;;1.30;;
14903;SDS011;7543;53.148;8.234;2023-07-30T13:15:44;5.40;;;1.60;;
14903;SDS011;7543;53.148;8.234;2023-07-30T13:18:12;3.63;;;1.40;;
14903;SDS011;7543;53.148;8.234;2023-07-30T13:20:40;2.30;;;1.40;;
14903;SDS011;7543;53.148;8.234;2023-07-30T13:23:09;2.47;;;1.30;;
14903;SDS011;7543;53.148;8.234;2023-07-30T13:25:37;5.00;;;1.33;;
14903;SDS011;7543;53.148;8.234;2023-07-30T13:28:07;4.83;;;1.80;;
14903;SDS011;7543;53.148;8.234;2023-07-30T13:30:35;4.10;;;1.30;;
14903;SDS011;7543;53.148;8.234;2023-07-30T13:33:03;2.23;;;1.40;;
14903;SDS011;7543;53.148;8.234;2023-07-30T13:35:32;3.43;;;1.13;;
14903;SDS011;7543;53.148;8.234;2023-07-30T13:38:00;3.50;;;1.30;;
14903;SDS011;7543;53.148;8.234;2023-07-30T13:40:28;3.87;;;1.57;;
14903;SDS011;7543;53.148;8.234;2023-07-30T13:42:57;3.57;;;1.20;;
14903;SDS011;7543;53.148;8.234;2023-07-30T13:45:26;3.90;;;1.13;;
14903;SDS011;7543;53.148;8.234;2023-07-30T13:47:55;5.30;;;1.47;;
14903;SDS011;7543;53.148;8.234;2023-07-30T13:50:23;3.87;;;1.20;;
14903;SDS011;7543;53.148;8.234;2023-07-30T13:52:52;2.90;;;1.47;;
14903;SDS011;7543;53.148;8.234;2023-07-30T13:55:20;2.60;;;1.73;;
14903;SDS011;7543;53.148;8.234;2023-07-30T13:57:49;3.50;;;1.40;;
14903;SDS011;7543;53.148;8.234;2023-07-30T14:00:17;7.07;;;1.80;;
14903;SDS011;7543;53.148;8.234;2023-07-30T14:02:47;2.20;;;1.23;;
14903;SDS011;7543;53.148;8.234;2023-07-30T14:05:17;2.93;;;0.80;;
14903;SDS011;7543;53.148;8.234;2023-07-30T14:07:46;2.67;;;0.77;;
14903;SDS011;7543;53.148;8.234;2023-07-30T14:10:14;0.90;;;0.73;;
14903;SDS011;7543;53.148;8.234;2023-07-30T14:12:43;1.63;;;0.67;;
14903;SDS011;7543;53.148;8.234;2023-07-30T14:15:11;1.70;;;0.90;;
14903;SDS011;7543;53.148;8.234;2023-07-30T14:17:41;2.57;;;0.80;;
14903;SDS011;7543;53.148;8.234;2023-07-30T14:20:11;3.83;;;1.00;;
14903;SDS011;7543;53.148;8.234;2023-07-30T14:22:39;1.57;;;0.80;;
14903;SDS011;7543;53.148;8.234;2023-07-30T14:25:07;3.87;;;1.03;;
14903;SDS011;7543;53.148;8.234;2023-07-30T14:27:36;3.40;;;0.80;;
14903;SDS011;7543;53.148;8.234;2023-07-30T14:30:05;1.33;;;0.90;;
14903;SDS011;7543;53.148;8.234;2023-07-30T14:32:34;3.13;;;0.93;;
14903;SDS011;7543;53.148;8.234;2023-07-30T14:35:03;2.00;;;1.00;;
14903;SDS011;7543;53.148;8.234;2023-07-30T14:37:33;3.00;;;0.80;;
14903;SDS011;7543;53.148;8.234;2023-07-30T14:40:01;2.47;;;1.00;;
14903;SDS011;7543;53.148;8.234;2023-07-30T14:42:29;4.27;;;1.00;;
14903;SDS011;7543;53.148;8.234;2023-07-30T14:44:58;1.23;;;0.70;;
14903;SDS011;7543;53.148;8.234;2023-07-30T14:47:26;2.47;;;0.93;;
14903;SDS011;7543;53.148;8.234;2023-07-30T14:49:54;3.20;;;1.03;;
14903;SDS011;7543;53.148;8.234;2023-07-30T14:52:23;2.53;;;0.93;;
14903;SDS011;7543;53.148;8.234;2023-07-30T14:54:52;2.40;;;0.80;;
14903;SDS011;7543;53.148;8.234;2023-07-30T14:57:21;4.07;;;1.13;;
14903;SDS011;7543;53.148;8.234;2023-07-30T14:59:49;3.40;;;1.10;;
14903;SDS011;7543;53.148;8.234;2023-07-30T15:02:19;2.07;;;0.73;;
14903;SDS011;7543;53.148;8.234;2023-07-30T15:04:47;3.57;;;0.87;;
14903;SDS011;7543;53.148;8.234;2023-07-30T15:07:16;2.23;;;0.70;;
14903;SDS011;7543;53.148;8.234;2023-07-30T15:09:44;5.30;;;1.10;;
14903;SDS011;7543;53.148;8.234;2023-07-30T15:12:14;2.40;;;1.10;;
14903;SDS011;7543;53.148;8.234;2023-07-30T15:14:43;3.37;;;1.00;;